Terminal Aerodrome Forecast
Issued by NWS

Home | Current Version | Previous Version | Text Only | Print | Product List | Glossary On
Versions: 1 2 3 4 5 6 7 8 9 10 11 12 13
000
FTUS43 KIND 250529
TAFLAF
TAF
KLAF 250529Z 2506/2606 19002KT P6SM SCT250
     FM250900 21002KT 4SM BR FEW050 BKN150
     FM251300 20004KT P6SM SCT050 BKN150
     FM252000 21010KT P6SM VCTS BKN050CB OVC100
      AMD LTD TO CLD VIS AND WIND TIL 251300=

USA.gov is the U.S. government's official web portal to all federal, state and local government web resources and services.